Time;durP1;ratioP1;P1;durP2;ratioP2;P2;SDS_P1;SDS_P2;PMS_P1;PMS_P2;Temp;Humidity;BMP_temperature;BMP_pressure;BME280_temperature;BME280_humidity;BME280_pressure;Samples;Min_cycle;Max_cycle;Signal;HPM_P1;HPM_P2
2022/06/01 00:00:51;;;;;;;5.22;2.92;;;;;;;18.50;92.58;98262.78;5018077;28;20573;-60
2022/06/01 00:03:16;;;;;;;4.15;3.13;;;;;;;18.49;92.89;98251.47;5016630;28;20186;-59
2022/06/01 00:05:42;;;;;;;3.28;2.97;;;;;;;18.48;93.12;98257.69;5021203;28;20268;-59
2022/06/01 00:08:08;;;;;;;4.72;3.58;;;;;;;18.47;93.09;98257.88;5026231;28;20202;-60
2022/06/01 00:10:34;;;;;;;5.85;3.50;;;;;;;18.50;92.86;98255.75;5030113;28;20185;-60
2022/06/01 00:13:00;;;;;;;3.08;2.88;;;;;;;18.43;92.89;98256.53;5044559;28;20176;-59
2022/06/01 00:15:27;;;;;;;5.35;3.35;;;;;;;18.38;92.69;98248.31;5037162;28;20189;-60
2022/06/01 00:17:52;;;;;;;4.07;2.97;;;;;;;18.42;92.68;98254.91;5033816;28;20203;-60
2022/06/01 00:20:19;;;;;;;3.83;2.55;;;;;;;18.39;93.18;98255.22;5028742;28;20186;-60
2022/06/01 00:22:45;;;;;;;9.00;3.55;;;;;;;18.40;92.74;98272.56;5038197;28;20570;-61
2022/06/01 00:25:14;;;;;;;4.05;2.90;;;;;;;18.45;91.64;98265.06;5041015;28;20318;-61
2022/06/01 00:27:39;;;;;;;5.38;3.45;;;;;;;18.45;91.64;98259.81;5041278;28;20186;-60
2022/06/01 00:30:08;;;;;;;3.33;3.13;;;;;;;18.49;91.25;98258.53;5044312;28;20986;-60
2022/06/01 00:32:34;;;;;;;7.97;2.88;;;;;;;18.42;91.72;98270.63;5035396;28;20235;-60
2022/06/01 00:35:01;;;;;;;5.28;3.40;;;;;;;18.28;92.10;98271.16;5045780;28;20185;-61
2022/06/01 00:37:26;;;;;;;2.97;2.78;;;;;;;18.22;92.60;98271.78;5040567;28;20190;-60
2022/06/01 00:39:53;;;;;;;5.50;3.30;;;;;;;18.18;93.07;98276.53;5038989;28;20183;-60
2022/06/01 00:42:27;;;;;;;3.90;3.50;;;;;;;18.13;93.74;98280.59;5031449;28;20239;-61
2022/06/01 00:44:53;;;;;;;4.43;3.35;;;;;;;18.15;93.26;98283.88;5019987;28;20200;-60
2022/06/01 00:47:24;;;;;;;6.38;3.40;;;;;;;18.15;92.97;98278.63;5022313;28;20185;-60
2022/06/01 00:49:55;;;;;;;3.75;3.47;;;;;;;18.17;92.52;98281.91;5041787;28;20205;-60
2022/06/01 00:52:35;;;;;;;3.65;3.33;;;;;;;18.23;92.50;98276.03;5038373;28;20181;-60
2022/06/01 00:55:21;;;;;;;8.00;3.45;;;;;;;18.28;91.78;98279.84;5036000;28;20173;-60
2022/06/01 00:57:52;;;;;;;3.03;2.83;;;;;;;18.43;91.34;98269.66;5032392;28;20217;-60
2022/06/01 01:00:23;;;;;;;3.67;2.88;;;;;;;18.44;90.88;98276.53;5041277;28;20181;-61
2022/06/01 01:02:52;;;;;;;6.95;3.70;;;;;;;18.37;90.26;98278.13;5039555;28;20605;-60
2022/06/01 01:05:19;;;;;;;2.80;2.55;;;;;;;18.27;91.31;98277.38;5038797;28;20189;-60
2022/06/01 01:07:45;;;;;;;3.22;2.92;;;;;;;18.28;91.07;98276.41;5039178;28;20185;-61
2022/06/01 01:10:13;;;;;;;4.22;3.10;;;;;;;18.33;90.47;98279.41;5035558;28;20197;-61
2022/06/01 01:12:59;;;;;;;3.85;3.13;;;;;;;18.33;90.17;98274.16;5037788;28;20280;-60
2022/06/01 01:15:30;;;;;;;4.25;2.95;;;;;;;18.34;90.17;98254.84;5040094;28;20186;-60
2022/06/01 01:17:57;;;;;;;3.65;2.75;;;;;;;18.33;89.46;98255.84;5037571;28;20569;-60
2022/06/01 01:20:24;;;;;;;5.05;3.50;;;;;;;18.29;90.22;98251.84;5035600;28;20620;-60
2022/06/01 01:23:11;;;;;;;7.03;3.40;;;;;;;18.26;89.46;98244.31;5042327;28;20190;-60
2022/06/01 01:25:38;;;;;;;3.47;3.03;;;;;;;18.19;90.36;98243.31;5018328;28;20272;-61
2022/06/01 01:28:06;;;;;;;5.07;3.10;;;;;;;18.18;90.36;98241.66;5019794;28;20624;-61
2022/06/01 01:30:40;;;;;;;3.30;3.10;;;;;;;18.16;90.12;98240.97;5029921;28;20189;-61
2022/06/01 01:33:09;;;;;;;3.78;2.97;;;;;;;18.12;89.54;98237.06;5042498;28;20192;-61
2022/06/01 01:35:35;;;;;;;3.28;2.97;;;;;;;18.13;90.46;98243.94;5046022;28;20243;-62
2022/06/01 01:38:06;;;;;;;5.25;2.97;;;;;;;18.12;90.87;98240.47;5045874;28;20185;-61
2022/06/01 01:40:32;;;;;;;4.10;2.83;;;;;;;18.15;91.18;98242.81;5030127;28;20180;-61
2022/06/01 01:43:00;;;;;;;3.03;2.83;;;;;;;17.98;91.54;98235.84;5041161;28;20189;-61
2022/06/01 01:45:29;;;;;;;7.43;3.20;;;;;;;18.15;89.82;98242.81;5029299;28;20273;-61
2022/06/01 01:47:55;;;;;;;4.07;2.85;;;;;;;18.18;89.55;98239.84;5018757;28;20741;-61
2022/06/01 01:50:23;;;;;;;7.30;3.40;;;;;;;18.19;89.25;98248.53;5038211;28;20617;-61
2022/06/01 01:52:49;;;;;;;5.70;3.25;;;;;;;18.02;89.81;98249.44;5035676;28;20196;-60
2022/06/01 01:55:39;;;;;;;4.00;2.95;;;;;;;18.05;88.99;98249.09;5031893;28;20276;-60
2022/06/01 01:58:34;;;;;;;2.90;2.70;;;;;;;17.97;88.72;98247.28;5037853;28;20721;-60
2022/06/01 02:01:10;;;;;;;6.03;2.85;;;;;;;17.99;89.15;98247.94;5043094;28;20178;-60
2022/06/01 02:03:35;;;;;;;5.40;3.20;;;;;;;17.97;87.97;98242.06;5033987;28;20173;-60
2022/06/01 02:06:32;;;;;;;3.38;3.05;;;;;;;17.84;90.19;98239.00;5035531;28;20188;-60
2022/06/01 02:09:02;;;;;;;4.78;3.05;;;;;;;17.86;89.24;98228.38;5038192;28;20206;-60
2022/06/01 02:14:29;;;;;;;5.72;3.55;;;;;;;17.81;89.13;98241.09;5041205;28;20697;-60
2022/06/01 02:17:03;;;;;;;3.65;2.70;;;;;;;17.83;89.64;98231.31;5036084;28;20260;-60
2022/06/01 02:19:38;;;;;;;5.03;2.88;;;;;;;17.89;89.24;98241.97;5037501;28;20185;-60
2022/06/01 02:22:04;;;;;;;4.75;2.65;;;;;;;17.81;90.33;98243.72;5032831;28;20177;-60
2022/06/01 02:24:30;;;;;;;3.13;2.92;;;;;;;17.71;90.82;98238.59;5041202;28;20216;-61
2022/06/01 02:26:58;;;;;;;3.00;2.80;;;;;;;17.65;91.51;98227.91;5037675;28;20216;-60
2022/06/01 02:29:51;;;;;;;7.20;3.10;;;;;;;17.60;92.48;98227.56;5036985;28;20292;-61
2022/06/01 02:32:18;;;;;;;7.18;3.10;;;;;;;17.36;94.40;98228.16;5020181;28;20201;-60
2022/06/01 02:34:45;;;;;;;5.97;2.45;;;;;;;17.44;93.28;98237.91;5040454;28;20192;-59
2022/06/01 02:37:16;;;;;;;5.18;3.30;;;;;;;17.48;91.68;98236.66;5043302;28;20189;-58
2022/06/01 02:39:46;;;;;;;3.53;3.05;;;;;;;17.59;91.29;98242.44;5043548;28;20259;-61
2022/06/01 02:42:26;;;;;;;3.55;2.97;;;;;;;17.67;89.69;98241.69;5046473;28;20185;-60
2022/06/01 02:45:06;;;;;;;5.70;2.72;;;;;;;17.70;86.54;98242.19;5040447;28;20212;-60
2022/06/01 02:47:37;;;;;;;3.28;2.97;;;;;;;17.72;86.47;98234.19;5033167;28;20294;-60
2022/06/01 02:50:05;;;;;;;7.32;3.22;;;;;;;17.81;85.27;98244.56;5036369;28;20259;-60
2022/06/01 02:52:30;;;;;;;4.00;2.75;;;;;;;17.80;84.84;98237.69;5038632;28;20618;-60
2022/06/01 02:54:56;;;;;;;3.53;2.75;;;;;;;17.87;85.30;98243.94;5040802;28;20299;-60
2022/06/01 02:57:22;;;;;;;3.47;2.70;;;;;;;17.89;84.08;98247.22;5040194;28;20614;-60
2022/06/01 02:59:48;;;;;;;8.00;2.83;;;;;;;17.90;84.79;98238.38;5037789;28;20213;-60
2022/06/01 03:02:13;;;;;;;5.50;2.83;;;;;;;17.84;84.94;98243.44;5039370;28;20213;-60
2022/06/01 03:04:41;;;;;;;2.72;2.50;;;;;;;17.78;85.95;98241.44;5041930;28;20716;-61
2022/06/01 03:07:07;;;;;;;2.83;2.50;;;;;;;17.68;88.35;98241.53;5033124;28;20193;-60
2022/06/01 03:09:33;;;;;;;3.67;2.60;;;;;;;17.76;87.95;98235.50;5041335;28;20299;-60
2022/06/01 03:11:59;;;;;;;4.82;2.70;;;;;;;17.74;87.22;98247.94;5036894;28;20356;-61
2022/06/01 03:14:25;;;;;;;8.73;2.75;;;;;;;17.63;88.00;98235.94;5038681;28;20188;-61
2022/06/01 03:16:51;;;;;;;3.63;2.97;;;;;;;17.64;88.24;98234.13;5037675;28;20216;-61
2022/06/01 03:19:17;;;;;;;7.05;3.92;;;;;;;17.63;88.02;98235.94;5036087;28;20804;-61
2022/06/01 03:21:43;;;;;;;3.63;3.00;;;;;;;17.73;88.86;98247.09;5042487;28;20185;-61
2022/06/01 03:24:09;;;;;;;3.35;2.90;;;;;;;17.75;88.00;98233.88;5036685;28;20573;-61
2022/06/01 03:26:35;;;;;;;3.08;2.67;;;;;;;17.83;87.80;98253.06;5040979;28;20181;-61
2022/06/01 03:29:01;;;;;;;6.20;2.70;;;;;;;17.90;86.68;98263.75;5037415;28;20211;-61
2022/06/01 03:31:26;;;;;;;6.15;2.80;;;;;;;17.83;87.18;98253.06;5020499;28;20186;-61
2022/06/01 03:33:52;;;;;;;3.35;2.83;;;;;;;17.89;86.13;98251.66;5017166;28;20181;-61
2022/06/01 03:36:17;;;;;;;5.07;2.60;;;;;;;17.84;85.06;98259.13;5024142;28;20193;-61
2022/06/01 03:38:42;;;;;;;2.80;2.60;;;;;;;17.87;85.52;98264.06;5029190;28;20177;-61
2022/06/01 03:41:08;;;;;;;3.80;2.70;;;;;;;17.92;85.82;98261.81;5035915;28;20181;-61
2022/06/01 03:46:18;;;;;;;4.82;2.78;;;;;;;17.78;85.87;98244.06;5034474;28;21168;-61
2022/06/01 03:48:43;;;;;;;4.10;2.30;;;;;;;17.91;85.55;98268.84;5028848;28;20202;-62
2022/06/01 03:51:09;;;;;;;5.05;2.35;;;;;;;18.03;85.01;98270.22;5042407;28;20201;-60
2022/06/01 03:53:34;;;;;;;3.83;2.78;;;;;;;18.06;85.53;98269.06;5036263;28;20262;-61
2022/06/01 03:56:02;;;;;;;7.38;2.40;;;;;;;18.19;84.07;98269.50;5037274;28;20181;-60
2022/06/01 03:58:28;;;;;;;3.38;2.55;;;;;;;18.32;82.57;98270.75;5040191;28;20308;-60
2022/06/01 04:00:54;;;;;;;4.85;2.92;;;;;;;18.48;82.55;98270.00;5037127;28;20352;-60
2022/06/01 04:03:20;;;;;;;3.25;2.28;;;;;;;18.52;81.26;98260.81;5045699;28;20634;-61
2022/06/01 04:05:46;;;;;;;4.63;3.05;;;;;;;18.58;80.23;98268.06;5032221;28;20359;-61
2022/06/01 04:08:12;;;;;;;4.65;2.13;;;;;;;18.72;79.22;98267.47;5032595;28;20288;-59
2022/06/01 04:10:40;;;;;;;2.85;2.58;;;;;;;18.79;79.43;98268.47;5039570;28;20415;-59
2022/06/01 04:13:05;;;;;;;4.60;2.08;;;;;;;18.87;78.45;98255.38;5022047;28;20229;-60
2022/06/01 04:15:31;;;;;;;12.80;3.15;;;;;;;18.92;79.34;98255.72;5016594;28;20181;-61
2022/06/01 04:17:56;;;;;;;2.70;2.50;;;;;;;18.92;80.15;98260.94;5019430;28;20186;-61
2022/06/01 04:20:22;;;;;;;9.52;2.92;;;;;;;18.91;79.75;98267.19;5031105;28;20208;-61
2022/06/01 04:22:48;;;;;;;5.55;2.45;;;;;;;18.86;78.70;98265.03;5040584;28;20192;-61
2022/06/01 04:25:17;;;;;;;3.03;2.33;;;;;;;18.88;79.38;98272.75;5030014;28;20183;-60
2022/06/01 04:27:43;;;;;;;5.85;2.65;;;;;;;18.86;79.99;98266.84;5039034;28;20193;-60
2022/06/01 04:30:11;;;;;;;3.25;2.30;;;;;;;18.92;80.24;98264.41;5036793;28;20240;-61
2022/06/01 04:32:37;;;;;;;3.15;2.33;;;;;;;18.94;80.86;98251.16;5043365;28;20681;-61
2022/06/01 04:35:03;;;;;;;5.60;2.42;;;;;;;19.11;79.23;98264.09;5035368;28;20192;-61
2022/06/01 04:37:29;;;;;;;3.17;2.30;;;;;;;19.18;79.71;98254.59;5036357;28;20268;-61
2022/06/01 04:39:55;;;;;;;5.18;2.70;;;;;;;19.19;80.48;98256.28;5037964;28;20272;-60
2022/06/01 04:42:20;;;;;;;6.68;2.72;;;;;;;19.37;79.46;98254.34;5040514;28;20227;-61
2022/06/01 04:44:46;;;;;;;6.00;2.65;;;;;;;19.48;78.83;98250.56;5035219;28;20733;-61
2022/06/01 04:47:12;;;;;;;5.57;3.15;;;;;;;19.55;78.44;98246.28;5030780;28;20792;-61
2022/06/01 04:49:38;;;;;;;2.88;2.67;;;;;;;19.56;78.02;98242.69;5029429;28;20233;-60
2022/06/01 04:52:05;;;;;;;7.65;2.80;;;;;;;19.72;77.59;98256.63;5034585;28;20193;-59
2022/06/01 04:54:30;;;;;;;5.97;2.55;;;;;;;19.80;76.56;98261.03;5033784;28;20483;-59
2022/06/01 04:56:55;;;;;;;3.83;2.72;;;;;;;19.77;77.08;98259.56;5016072;28;20886;-59
2022/06/01 04:59:21;;;;;;;4.38;2.50;;;;;;;19.88;76.91;98263.66;5037175;28;20640;-61
2022/06/01 05:01:46;;;;;;;9.02;2.45;;;;;;;19.95;77.09;98264.63;5041354;28;20186;-60
2022/06/01 05:04:12;;;;;;;2.65;2.45;;;;;;;19.93;77.42;98271.88;5032560;28;20258;-60
2022/06/01 05:06:38;;;;;;;6.25;2.80;;;;;;;19.90;77.43;98274.81;5036218;28;20192;-61
2022/06/01 05:09:03;;;;;;;3.88;2.60;;;;;;;20.11;77.86;98281.19;5041402;28;20499;-60
2022/06/01 05:11:29;;;;;;;4.93;2.60;;;;;;;20.32;75.86;98284.13;5045613;28;20174;-60
2022/06/01 05:13:55;;;;;;;8.98;5.22;;;;;;;20.47;78.94;98295.59;5041743;28;20181;-60
2022/06/01 05:16:20;;;;;;;7.97;4.60;;;;;;;20.59;78.88;98285.50;5025941;28;20690;-60
2022/06/01 05:18:46;;;;;;;4.22;2.78;;;;;;;20.72;74.88;98291.88;5019860;28;20202;-60
2022/06/01 05:21:12;;;;;;;3.17;2.65;;;;;;;20.83;73.67;98299.38;5022725;28;20189;-60
2022/06/01 05:23:37;;;;;;;3.70;2.53;;;;;;;20.99;74.02;98303.75;5032473;28;20650;-60
2022/06/01 05:26:03;;;;;;;10.23;4.57;;;;;;;21.02;76.26;98306.88;5032201;28;20621;-60
2022/06/01 05:28:31;;;;;;;8.27;3.60;;;;;;;20.93;75.87;98309.72;5043260;28;20631;-60
2022/06/01 05:31:04;;;;;;;10.18;4.93;;;;;;;21.12;79.74;98310.09;5034060;28;20247;-60
2022/06/01 05:33:31;;;;;;;16.95;6.60;;;;;;;21.31;81.19;98314.91;5040736;28;20189;-60
2022/06/01 05:35:57;;;;;;;13.05;5.57;;;;;;;21.43;81.02;98320.59;5041536;28;20854;-59
2022/06/01 05:38:22;;;;;;;6.60;5.20;;;;;;;21.58;79.76;98321.47;5037715;28;20271;-60
2022/06/01 05:40:48;;;;;;;5.28;3.97;;;;;;;21.55;73.85;98321.81;5039359;28;20247;-60
2022/06/01 05:43:15;;;;;;;8.30;3.28;;;;;;;21.53;72.95;98322.00;5038417;28;20192;-59
2022/06/01 05:45:41;;;;;;;4.20;2.97;;;;;;;21.59;73.65;98312.56;5031933;28;20197;-60
2022/06/01 05:48:09;;;;;;;10.07;4.57;;;;;;;21.75;74.44;98312.50;5031956;28;20185;-59
2022/06/01 05:50:35;;;;;;;7.82;4.90;;;;;;;21.72;74.40;98312.81;5032994;28;20678;-59
2022/06/01 05:53:00;;;;;;;8.00;3.92;;;;;;;21.83;73.37;98309.78;5029956;28;20182;-60
2022/06/01 05:55:26;;;;;;;12.02;5.03;;;;;;;21.98;73.83;98318.56;5042195;28;20193;-60
2022/06/01 05:57:51;;;;;;;5.97;2.38;;;;;;;22.05;68.52;98308.94;5023541;28;20954;-59
2022/06/01 06:00:18;;;;;;;4.05;2.42;;;;;;;22.11;67.40;98310.84;5018421;28;20212;-60
2022/06/01 06:02:44;;;;;;;3.00;2.45;;;;;;;22.08;67.55;98304.13;5020431;28;20189;-60
2022/06/01 06:07:56;;;;;;;3.33;2.40;;;;;;;22.13;68.60;98308.84;5039802;28;20185;-61
2022/06/01 06:10:22;;;;;;;7.80;3.97;;;;;;;22.16;70.52;98316.41;5038783;28;20181;-61
2022/06/01 06:12:48;;;;;;;7.78;3.83;;;;;;;22.22;71.42;98313.03;5035790;28;20600;-60
2022/06/01 06:15:14;;;;;;;14.07;4.80;;;;;;;22.34;72.30;98315.06;5034491;28;20664;-60
2022/06/01 06:17:39;;;;;;;14.07;6.07;;;;;;;22.49;71.39;98320.38;5043245;28;20691;-61
2022/06/01 06:20:06;;;;;;;12.00;5.07;;;;;;;22.57;70.92;98315.84;5038153;28;20239;-60
2022/06/01 06:22:31;;;;;;;24.63;6.25;;;;;;;22.73;70.89;98322.72;5038417;28;20192;-61
2022/06/01 06:24:57;;;;;;;14.25;5.63;;;;;;;22.86;70.71;98322.91;5043512;28;20180;-61
2022/06/01 06:27:22;;;;;;;11.98;5.43;;;;;;;22.98;69.73;98326.69;5044879;28;20181;-60
2022/06/01 06:29:48;;;;;;;9.95;5.18;;;;;;;23.12;68.74;98324.03;5031385;28;20220;-60
2022/06/01 06:32:13;;;;;;;7.90;4.95;;;;;;;23.26;67.25;98315.28;5038951;28;20181;-60
2022/06/01 06:34:39;;;;;;;12.52;4.80;;;;;;;23.39;65.96;98323.34;5038652;28;20177;-60
2022/06/01 06:37:05;;;;;;;13.38;5.43;;;;;;;23.48;65.21;98326.69;5034072;28;20235;-60
2022/06/01 06:39:30;;;;;;;8.68;4.65;;;;;;;23.50;64.82;98316.75;5028730;28;20841;-59
2022/06/01 06:41:56;;;;;;;3.40;3.10;;;;;;;23.56;62.81;98321.28;5016799;28;20193;-60
2022/06/01 06:44:21;;;;;;;9.32;4.30;;;;;;;23.54;63.11;98323.31;5018697;28;20777;-60
2022/06/01 06:46:47;;;;;;;4.63;3.13;;;;;;;23.59;63.35;98323.56;5035692;28;20191;-60
2022/06/01 06:49:12;;;;;;;3.90;2.65;;;;;;;23.67;62.40;98316.34;5043976;28;20219;-61
2022/06/01 06:51:38;;;;;;;4.50;2.78;;;;;;;23.59;62.86;98291.88;5041594;28;20224;-61
2022/06/01 06:54:04;;;;;;;3.03;2.20;;;;;;;23.92;60.66;98322.06;5037064;28;20188;-62
2022/06/01 06:56:29;;;;;;;2.70;2.33;;;;;;;23.98;61.56;98313.34;5044237;28;20195;-60
2022/06/01 06:58:55;;;;;;;5.45;2.53;;;;;;;24.04;59.77;98314.22;5029690;28;20989;-61
2022/06/01 07:01:21;;;;;;;4.32;2.75;;;;;;;24.12;57.88;98315.91;5037289;28;20192;-61
2022/06/01 07:03:46;;;;;;;2.35;2.17;;;;;;;24.11;58.24;98314.28;5037169;28;20243;-61
2022/06/01 07:06:12;;;;;;;4.85;2.30;;;;;;;24.03;58.99;98303.84;5039315;28;20181;-61
2022/06/01 07:08:40;;;;;;;2.33;2.10;;;;;;;24.12;58.76;98307.19;5039848;28;20209;-61
2022/06/01 07:11:06;;;;;;;5.32;2.40;;;;;;;24.25;58.42;98316.00;5043951;28;20273;-61
2022/06/01 07:13:32;;;;;;;3.17;2.05;;;;;;;24.31;56.45;98313.41;5033022;28;20746;-61
2022/06/01 07:16:20;;;;;;;2.72;2.30;;;;;;;24.38;56.92;98316.09;5039588;28;20195;-61
2022/06/01 07:18:48;;;;;;;4.13;2.80;;;;;;;24.48;56.40;98312.09;5042966;28;20177;-61
2022/06/01 07:21:15;;;;;;;2.92;2.35;;;;;;;24.48;56.39;98311.25;5037040;28;20226;-61
2022/06/01 07:23:41;;;;;;;2.40;2.25;;;;;;;24.45;55.98;98314.31;5035820;28;20208;-62
2022/06/01 07:26:09;;;;;;;3.17;2.45;;;;;;;24.54;56.31;98315.78;5035872;28;20187;-61
2022/06/01 07:28:35;;;;;;;2.83;2.47;;;;;;;24.42;54.59;98304.94;5035002;28;20197;-61
2022/06/01 07:31:00;;;;;;;5.28;2.53;;;;;;;24.57;55.72;98302.19;5028685;28;21059;-61
2022/06/01 07:33:28;;;;;;;4.68;2.67;;;;;;;24.72;57.10;98308.19;5039452;28;20184;-61
2022/06/01 07:35:54;;;;;;;9.63;8.65;;;;;;;24.79;57.18;98304.53;5037452;28;20185;-62
2022/06/01 07:44:09;;;;;;;2.47;2.30;;;;;;;24.99;54.73;98302.81;5052873;28;20191;-62
2022/06/01 07:46:36;;;;;;;3.80;2.65;;;;;;;25.09;56.15;98300.59;5053459;28;20216;-62
2022/06/01 07:49:02;;;;;;;8.18;3.08;;;;;;;25.21;53.57;98304.31;5050286;28;20217;-61
2022/06/01 07:51:27;;;;;;;3.22;2.20;;;;;;;25.38;51.89;98312.75;5032494;28;20196;-62
2022/06/01 07:53:53;;;;;;;4.60;2.47;;;;;;;25.38;50.07;98295.00;5036729;28;20182;-61
2022/06/01 07:56:18;;;;;;;3.08;2.33;;;;;;;25.52;50.05;98301.97;5042221;28;20184;-60
2022/06/01 07:58:44;;;;;;;6.75;2.80;;;;;;;25.59;50.11;98302.78;5039488;28;20566;-61
2022/06/01 08:01:10;;;;;;;3.00;2.70;;;;;;;25.66;49.86;98303.59;5035523;28;20260;-61
2022/06/01 08:03:35;;;;;;;5.72;3.00;;;;;;;25.73;50.28;98298.31;5034800;28;20192;-61
2022/06/01 08:06:01;;;;;;;11.07;3.60;;;;;;;25.83;50.32;98304.84;5015424;28;20294;-61
2022/06/01 08:08:27;;;;;;;6.78;3.63;;;;;;;25.89;50.33;98306.69;5017495;28;20552;-61
2022/06/01 08:10:52;;;;;;;11.15;3.40;;;;;;;25.97;49.83;98311.81;5028435;28;20599;-61
2022/06/01 08:13:19;;;;;;;5.97;3.33;;;;;;;26.01;49.74;98306.94;5035456;28;20311;-61
2022/06/01 08:15:48;;;;;;;10.98;3.20;;;;;;;26.05;49.72;98303.66;5035839;28;20177;-61
2022/06/01 08:18:17;;;;;;;5.90;3.25;;;;;;;26.08;49.63;98310.38;5044429;28;20192;-62
2022/06/01 08:20:43;;;;;;;6.03;3.67;;;;;;;26.10;49.09;98301.22;5033932;28;20626;-62
2022/06/01 08:23:09;;;;;;;8.65;3.25;;;;;;;26.08;49.10;98310.38;5042288;28;20199;-61
2022/06/01 08:25:36;;;;;;;7.55;3.70;;;;;;;26.10;49.71;98298.56;5025057;28;20189;-61
2022/06/01 08:28:04;;;;;;;5.55;3.35;;;;;;;26.20;49.70;98301.63;5016455;28;20186;-61
2022/06/01 08:30:31;;;;;;;6.40;3.50;;;;;;;26.18;50.27;98294.88;5018926;28;20184;-61
2022/06/01 08:32:57;;;;;;;7.18;3.70;;;;;;;26.27;50.74;98297.09;5037617;28;20590;-61
2022/06/01 08:35:32;;;;;;;9.32;3.78;;;;;;;26.36;50.52;98301.16;5025757;28;20232;-62
2022/06/01 08:37:59;;;;;;;11.27;4.43;;;;;;;26.31;50.45;98308.91;5039524;28;20358;-61
2022/06/01 08:40:31;;;;;;;11.25;3.97;;;;;;;26.38;51.20;98304.44;5040746;28;20184;-61
2022/06/01 08:43:09;;;;;;;4.75;3.67;;;;;;;26.45;51.74;98313.19;5041083;28;20263;-61
2022/06/01 08:45:35;;;;;;;9.25;3.67;;;;;;;26.49;50.84;98306.47;5042606;28;20267;-61
2022/06/01 08:48:02;;;;;;;8.65;4.10;;;;;;;26.55;51.29;98312.78;5019141;28;20297;-61
2022/06/01 08:50:31;;;;;;;8.98;3.65;;;;;;;26.66;50.44;98318.28;5020339;28;20224;-61
2022/06/01 08:53:02;;;;;;;5.10;3.35;;;;;;;26.55;50.39;98310.97;5028040;28;20197;-61
2022/06/01 08:55:37;;;;;;;9.77;3.65;;;;;;;26.51;51.50;98306.22;5038099;28;20742;-61
2022/06/01 08:58:41;;;;;;;6.32;3.33;;;;;;;26.59;51.42;98309.50;5029810;28;20212;-61
2022/06/01 09:01:25;;;;;;;7.47;3.92;;;;;;;26.72;50.55;98304.19;5036098;28;20193;-61
2022/06/01 09:04:09;;;;;;;4.60;3.25;;;;;;;26.74;51.83;98306.59;5037219;28;20598;-61
2022/06/01 09:06:48;;;;;;;8.90;3.10;;;;;;;26.79;51.38;98302.31;5040130;28;20170;-61
2022/06/01 09:09:36;;;;;;;3.92;3.17;;;;;;;26.85;51.35;98311.28;5018881;28;20193;-61
2022/06/01 09:12:03;;;;;;;8.43;3.28;;;;;;;26.85;50.44;98309.44;5020877;28;20213;-62
2022/06/01 09:14:33;;;;;;;6.95;3.63;;;;;;;26.85;50.73;98306.78;5041998;28;20271;-61
2022/06/01 09:16:59;;;;;;;5.93;3.47;;;;;;;26.90;50.91;98303.50;5038971;28;20182;-61
2022/06/01 09:22:37;;;;;;;6.63;3.13;;;;;;;26.96;50.84;98300.81;5031572;28;20738;-61
2022/06/01 09:22:37;;;;;;;4.65;3.15;;;;;;;27.06;50.34;98297.72;5035031;28;20186;-61
2022/06/01 09:25:15;;;;;;;5.53;3.53;;;;;;;27.14;49.65;98295.63;5039677;28;20935;-62
2022/06/01 09:27:45;;;;;;;5.55;3.08;;;;;;;27.25;49.79;98296.81;5041697;28;20312;-61
2022/06/01 09:30:18;;;;;;;5.60;3.33;;;;;;;27.34;49.20;98296.34;5037827;28;21052;-61
2022/06/01 09:33:03;;;;;;;7.93;3.60;;;;;;;27.43;49.33;98292.44;5040029;28;20200;-61
2022/06/01 09:35:34;;;;;;;6.28;3.17;;;;;;;27.50;49.34;98287.88;5043312;28;20173;-61
2022/06/01 09:38:10;;;;;;;4.90;3.05;;;;;;;27.58;49.33;98284.16;5033024;28;20184;-61
2022/06/01 09:40:36;;;;;;;5.90;3.17;;;;;;;27.68;49.03;98279.97;5031700;28;20176;-61
2022/06/01 09:43:03;;;;;;;3.33;3.05;;;;;;;27.75;48.84;98278.06;5038974;28;20574;-61
2022/06/01 09:45:38;;;;;;;7.68;3.00;;;;;;;27.85;47.66;98283.75;5043993;28;20188;-61
2022/06/01 09:48:16;;;;;;;5.80;3.53;;;;;;;27.88;48.37;98280.66;5038269;28;20177;-61
2022/06/01 09:50:45;;;;;;;7.57;3.20;;;;;;;27.94;49.01;98277.13;5018711;28;20914;-61
2022/06/01 09:53:10;;;;;;;6.95;3.28;;;;;;;28.01;47.99;98277.91;5018868;28;20209;-62
2022/06/01 09:55:53;;;;;;;3.03;2.67;;;;;;;28.09;46.45;98272.28;5027082;28;20225;-61
2022/06/01 10:07:00;;;;;;;5.68;3.53;;;;;;;28.43;45.24;98265.63;5036500;28;20562;-61
2022/06/01 10:09:30;;;;;;;13.27;3.78;;;;;;;28.59;46.20;98265.06;5040648;28;20201;-61
2022/06/01 10:11:57;;;;;;;9.82;3.15;;;;;;;28.68;46.35;98267.19;5017477;28;20846;-61
2022/06/01 10:14:31;;;;;;;4.97;2.88;;;;;;;28.83;44.77;98269.47;5019129;28;20623;-61
2022/06/01 10:17:15;;;;;;;6.28;2.72;;;;;;;28.94;44.19;98264.22;5026069;28;20678;-61
2022/06/01 10:20:09;;;;;;;4.65;2.40;;;;;;;29.07;43.18;98269.41;5035707;28;20178;-61
2022/06/01 10:22:39;;;;;;;4.95;2.60;;;;;;;29.23;42.45;98262.63;5042594;28;20281;-62
2022/06/01 10:25:12;;;;;;;5.47;2.72;;;;;;;29.30;43.21;98256.16;5030122;28;20185;-61
2022/06/01 10:28:25;;;;;;;8.93;3.28;;;;;;;29.41;43.28;98258.06;5035665;28;20239;-61
2022/06/01 10:30:54;;;;;;;7.38;3.05;;;;;;;29.55;43.51;98262.16;5026567;28;20201;-62
2022/06/01 10:33:30;;;;;;;5.00;3.15;;;;;;;29.57;41.26;98260.06;5017533;28;20193;-62
2022/06/01 10:35:58;;;;;;;4.05;2.40;;;;;;;29.58;40.74;98263.56;5019072;28;20227;-61
2022/06/01 10:38:41;;;;;;;5.10;2.15;;;;;;;29.68;40.48;98251.28;5033110;28;20181;-62
2022/06/01 10:41:21;;;;;;;3.60;2.25;;;;;;;29.90;37.64;98257.69;5039691;28;20263;-61
2022/06/01 10:44:29;;;;;;;2.97;1.85;;;;;;;30.13;36.02;98262.28;5039174;28;20178;-61
2022/06/01 10:47:08;;;;;;;3.47;1.88;;;;;;;30.45;36.01;98269.69;5028134;28;20189;-61
2022/06/01 10:49:48;;;;;;;2.30;1.85;;;;;;;30.73;34.57;98269.75;5037632;28;21021;-61
2022/06/01 10:52:49;;;;;;;5.97;2.50;;;;;;;31.01;35.96;98269.00;5039992;28;20165;-61
2022/06/01 10:55:19;;;;;;;3.53;2.25;;;;;;;31.11;33.13;98272.69;5035812;28;20738;-61
2022/06/01 10:57:47;;;;;;;5.72;1.70;;;;;;;31.29;30.31;98269.00;5039447;28;20308;-61
2022/06/01 11:00:21;;;;;;;1.95;1.58;;;;;;;31.35;30.32;98266.22;5039867;28;20193;-61
2022/06/01 11:02:57;;;;;;;1.77;1.50;;;;;;;31.58;31.06;98265.25;5044513;28;20178;-61
2022/06/01 11:05:50;;;;;;;2.70;1.60;;;;;;;31.82;31.67;98264.91;5043367;28;20177;-61
2022/06/01 11:08:22;;;;;;;3.10;1.73;;;;;;;32.05;31.08;98261.25;5033662;28;20174;-61
2022/06/01 11:11:06;;;;;;;3.50;1.55;;;;;;;32.26;30.54;98264.03;5027712;28;20223;-62
2022/06/01 11:13:57;;;;;;;4.07;2.10;;;;;;;32.43;30.51;98266.66;5042792;28;20269;-61
2022/06/01 11:16:31;;;;;;;4.03;2.10;;;;;;;32.46;29.59;98263.50;5036965;28;20185;-62
2022/06/01 11:19:30;;;;;;;2.95;2.10;;;;;;;32.55;30.15;98252.09;5039920;28;20173;-62
2022/06/01 11:22:03;;;;;;;3.53;2.10;;;;;;;32.64;31.91;98245.22;5038780;28;20314;-61
2022/06/01 11:24:31;;;;;;;9.20;2.13;;;;;;;32.82;32.15;98246.84;5039537;28;20243;-62
2022/06/01 11:27:34;;;;;;;5.60;1.98;;;;;;;32.91;30.61;98246.13;5035658;28;20196;-62
2022/06/01 11:30:02;;;;;;;3.13;2.10;;;;;;;33.11;31.60;98243.66;5043823;28;20193;-62
2022/06/01 11:32:42;;;;;;;3.08;2.03;;;;;;;33.09;31.14;98213.63;5027851;28;20208;-61
2022/06/01 11:35:14;;;;;;;4.30;2.03;;;;;;;32.96;31.85;98232.78;5034181;28;20239;-61
2022/06/01 11:37:44;;;;;;;5.63;1.92;;;;;;;33.06;32.08;98232.88;5036516;28;20188;-61
2022/06/01 11:40:17;;;;;;;4.82;2.00;;;;;;;33.16;32.45;98227.63;5040287;28;20226;-61
2022/06/01 11:42:55;;;;;;;4.75;1.85;;;;;;;32.99;32.30;98226.91;5043727;28;20177;-61
2022/06/01 11:45:38;;;;;;;3.25;2.28;;;;;;;32.73;31.09;98233.03;5036205;28;20192;-61
2022/06/01 11:48:07;;;;;;;2.97;2.03;;;;;;;32.67;30.57;98230.53;5038495;28;20217;-61
2022/06/01 11:50:52;;;;;;;3.22;1.65;;;;;;;32.90;30.95;98223.06;5035028;28;20193;-61
2022/06/01 11:53:31;;;;;;;6.18;1.40;;;;;;;32.86;29.38;98223.81;5026590;28;20193;-61
2022/06/01 11:56:18;;;;;;;3.42;1.60;;;;;;;33.19;28.86;98232.50;5032619;28;20321;-61
2022/06/01 11:59:15;;;;;;;2.40;1.67;;;;;;;33.48;27.95;98236.56;5036270;28;20685;-61
2022/06/01 12:01:41;;;;;;;3.28;1.52;;;;;;;33.56;28.67;98233.41;5036461;28;20742;-61
2022/06/01 12:04:24;;;;;;;2.88;1.92;;;;;;;33.76;29.65;98230.91;5044389;28;20280;-61
2022/06/01 12:07:21;;;;;;;2.58;1.75;;;;;;;33.92;29.19;98232.66;5043159;28;20256;-62
2022/06/01 12:09:57;;;;;;;5.13;1.80;;;;;;;33.60;29.15;98237.22;5043802;28;20251;-61